createdAt,value
2017-08-11T00:01:53.819Z,12.87
2017-08-11T00:04:21.411Z,14.10
2017-08-11T00:06:49.032Z,12.17
2017-08-11T00:09:16.621Z,12.07
2017-08-11T00:11:44.256Z,12.07
2017-08-11T00:14:11.851Z,12.20
2017-08-11T00:16:39.949Z,14.40
2017-08-11T00:19:07.559Z,15.37
2017-08-11T00:21:35.154Z,15.57
2017-08-11T00:24:02.792Z,12.93
2017-08-11T00:26:30.395Z,12.17
2017-08-11T00:28:58.373Z,14.97
2017-08-11T00:31:25.957Z,13.43
2017-08-11T00:33:53.674Z,14.93
2017-08-11T00:36:21.284Z,14.03
2017-08-11T00:38:48.867Z,18.33
2017-08-11T00:41:16.509Z,16.73
2017-08-11T00:43:44.096Z,14.00
2017-08-11T00:46:11.708Z,15.03
2017-08-11T00:48:39.324Z,15.70
2017-08-11T00:51:06.949Z,17.23
2017-08-11T00:53:34.535Z,16.50
2017-08-11T00:56:02.530Z,19.80
2017-08-11T00:58:30.141Z,18.20
2017-08-11T01:00:57.806Z,19.93
2017-08-11T01:03:25.467Z,16.93
2017-08-11T01:05:53.127Z,17.63
2017-08-11T01:08:20.734Z,16.13
2017-08-11T01:10:48.358Z,21.73
2017-08-11T01:13:15.997Z,17.90
2017-08-11T01:15:43.648Z,17.07
2017-08-11T01:18:11.685Z,17.80
2017-08-11T01:20:39.811Z,16.90
2017-08-11T01:23:07.425Z,16.80
2017-08-11T01:25:35.029Z,22.20
2017-08-11T01:28:02.645Z,18.53
2017-08-11T01:30:30.311Z,15.43
2017-08-11T01:32:59.420Z,17.70
2017-08-11T01:35:27.389Z,20.93
2017-08-11T01:37:54.956Z,16.93
2017-08-11T01:40:22.554Z,15.77
2017-08-11T01:42:50.175Z,18.80
2017-08-11T01:45:17.840Z,17.87
2017-08-11T01:47:45.456Z,16.40
2017-08-11T01:50:13.057Z,16.30
2017-08-11T01:52:40.739Z,20.30
2017-08-11T01:55:08.459Z,19.17
2017-08-11T01:57:36.447Z,16.57
2017-08-11T02:00:04.058Z,13.90
2017-08-11T02:02:31.674Z,16.47
2017-08-11T02:04:59.281Z,15.70
2017-08-11T02:07:26.886Z,14.27
2017-08-11T02:09:54.503Z,13.97
2017-08-11T02:12:22.078Z,10.87
2017-08-11T02:14:49.986Z,11.93
2017-08-11T02:17:17.574Z,13.83
2017-08-11T02:19:45.175Z,10.80
2017-08-11T02:22:12.790Z,9.60
2017-08-11T02:24:40.379Z,9.63
2017-08-11T02:27:07.991Z,9.77
2017-08-11T02:29:35.580Z,10.40
2017-08-11T02:32:03.201Z,8.23
2017-08-11T02:34:30.920Z,11.33
2017-08-11T02:36:58.525Z,11.87
2017-08-11T02:39:26.134Z,9.90
2017-08-11T02:41:54.074Z,10.00
2017-08-11T02:44:21.667Z,10.37
2017-08-11T02:46:49.251Z,11.43
2017-08-11T02:49:16.858Z,9.63
2017-08-11T02:51:44.451Z,9.50
2017-08-11T02:54:12.102Z,10.53
2017-08-11T02:56:39.704Z,10.40
2017-08-11T02:59:07.691Z,9.67
2017-08-11T03:01:35.275Z,10.47
2017-08-11T03:04:02.847Z,11.93
2017-08-11T03:06:30.449Z,10.77
2017-08-11T03:08:58.042Z,8.90
2017-08-11T03:11:25.755Z,9.67
2017-08-11T03:13:54.731Z,9.77
2017-08-11T03:16:22.350Z,11.80
2017-08-11T03:18:49.920Z,10.13
2017-08-11T03:21:17.505Z,9.33
2017-08-11T03:23:45.246Z,11.27
2017-08-11T03:26:12.855Z,11.40
2017-08-11T03:28:40.885Z,10.17
2017-08-11T03:31:09.304Z,10.37
2017-08-11T03:33:36.878Z,9.87
2017-08-11T03:36:04.485Z,11.60
2017-08-11T03:38:32.163Z,10.13
2017-08-11T03:41:00.071Z,11.00
2017-08-11T03:43:27.670Z,10.83
2017-08-11T03:45:55.245Z,11.23
2017-08-11T03:48:22.871Z,11.93
2017-08-11T03:50:50.668Z,10.30
2017-08-11T03:53:18.469Z,9.70
2017-08-11T03:55:46.107Z,9.47
2017-08-11T03:58:13.807Z,9.00
2017-08-11T04:00:41.394Z,9.33
2017-08-11T04:03:10.285Z,8.53
2017-08-11T04:05:37.993Z,7.83
2017-08-11T04:08:05.584Z,7.93
2017-08-11T04:10:33.498Z,7.97
2017-08-11T04:13:01.113Z,7.53
2017-08-11T04:15:28.692Z,7.70
2017-08-11T04:17:56.308Z,8.33
2017-08-11T04:20:23.899Z,7.60
2017-08-11T04:22:51.528Z,7.27
2017-08-11T04:25:19.087Z,7.70
2017-08-11T04:27:47.036Z,7.13
2017-08-11T04:30:14.629Z,8.17
2017-08-11T04:32:42.340Z,7.87
2017-08-11T04:35:09.953Z,10.93
2017-08-11T04:37:37.660Z,7.83
2017-08-11T04:40:05.330Z,9.30
2017-08-11T04:42:33.008Z,11.83
2017-08-11T04:45:00.582Z,8.93
2017-08-11T04:47:28.195Z,8.53
2017-08-11T04:49:56.190Z,9.00
2017-08-11T04:52:23.792Z,9.73
2017-08-11T04:54:51.368Z,12.30
2017-08-11T04:57:19.188Z,8.40
2017-08-11T04:59:46.757Z,8.30
2017-08-11T05:02:14.384Z,9.10
2017-08-11T05:04:41.980Z,9.30
2017-08-11T05:07:09.616Z,10.97
2017-08-11T05:09:37.253Z,10.10
2017-08-11T05:12:04.867Z,10.80
2017-08-11T05:14:32.452Z,11.73
2017-08-11T05:17:00.061Z,10.53
2017-08-11T05:19:29.372Z,11.73
2017-08-11T05:21:57.921Z,12.67
2017-08-11T05:24:25.525Z,12.23
2017-08-11T05:26:53.130Z,13.20
2017-08-11T05:29:20.724Z,11.33
2017-08-11T05:31:48.706Z,13.70
2017-08-11T05:34:16.304Z,14.27
2017-08-11T05:36:44.327Z,12.63
2017-08-11T05:39:11.972Z,12.03
2017-08-11T05:41:39.585Z,13.60
2017-08-11T05:44:07.203Z,11.30
2017-08-11T05:46:34.819Z,12.90
2017-08-11T05:49:02.449Z,15.17
2017-08-11T05:51:30.139Z,11.90
2017-08-11T05:53:58.293Z,12.03
2017-08-11T05:56:25.897Z,12.33
2017-08-11T05:58:53.490Z,13.50
2017-08-11T06:01:21.114Z,13.70
2017-08-11T06:03:48.724Z,12.93
2017-08-11T06:06:16.345Z,12.53
2017-08-11T06:08:43.934Z,13.13
2017-08-11T06:11:11.533Z,11.47
2017-08-11T06:13:39.148Z,15.87
2017-08-11T06:16:06.940Z,11.83
2017-08-11T06:18:34.539Z,11.70
2017-08-11T06:21:02.457Z,13.30
2017-08-11T06:23:30.051Z,11.90
2017-08-11T06:25:57.758Z,12.90
2017-08-11T06:28:25.374Z,12.90
2017-08-11T06:30:52.977Z,11.93
2017-08-11T06:33:20.690Z,12.60
2017-08-11T06:35:48.288Z,13.87
2017-08-11T06:38:16.024Z,11.23
2017-08-11T06:40:43.764Z,12.60
2017-08-11T06:43:11.783Z,12.90
2017-08-11T06:45:39.519Z,11.93
2017-08-11T06:48:07.228Z,17.80
2017-08-11T06:50:34.852Z,10.37
2017-08-11T06:53:02.442Z,14.97
2017-08-11T06:55:30.103Z,12.40
2017-08-11T06:57:57.711Z,13.57
2017-08-11T07:00:25.340Z,12.90
2017-08-11T07:02:52.942Z,17.03
2017-08-11T07:05:20.558Z,13.83
2017-08-11T07:07:48.168Z,20.20
2017-08-11T07:10:16.401Z,20.30
2017-08-11T07:12:44.011Z,14.23
2017-08-11T07:15:11.644Z,14.70
2017-08-11T07:17:39.244Z,16.77
2017-08-11T07:20:06.840Z,14.23
2017-08-11T07:22:34.468Z,13.23
2017-08-11T07:25:02.329Z,16.07
2017-08-11T07:27:30.018Z,14.30
2017-08-11T07:29:57.724Z,16.40
2017-08-11T07:32:25.461Z,16.17
2017-08-11T07:34:53.064Z,15.10
2017-08-11T07:37:20.676Z,17.87
2017-08-11T07:39:48.302Z,14.47
2017-08-11T07:42:16.244Z,23.33
2017-08-11T07:44:43.992Z,16.47
2017-08-11T07:47:11.644Z,15.80
2017-08-11T07:49:39.245Z,15.43
2017-08-11T07:52:06.855Z,15.87
2017-08-11T07:54:34.482Z,18.87
2017-08-11T07:57:02.068Z,16.00
2017-08-11T07:59:29.713Z,20.13
2017-08-11T08:01:57.306Z,16.83
2017-08-11T08:04:25.304Z,16.47
2017-08-11T08:06:52.910Z,19.43
2017-08-11T08:09:20.666Z,20.63
2017-08-11T08:11:48.297Z,18.73
2017-08-11T08:14:15.925Z,17.00
2017-08-11T08:16:43.558Z,15.60
2017-08-11T08:19:11.206Z,17.73
2017-08-11T08:21:38.962Z,17.87
2017-08-11T08:24:06.585Z,18.97
2017-08-11T08:26:34.195Z,19.63
2017-08-11T08:29:01.840Z,18.80
2017-08-11T08:31:29.504Z,24.30
2017-08-11T08:33:57.119Z,19.37
2017-08-11T08:36:25.776Z,18.17
2017-08-11T08:38:53.387Z,21.33
2017-08-11T08:41:20.992Z,19.87
2017-08-11T08:43:49.103Z,25.40
2017-08-11T08:46:16.678Z,19.97
2017-08-11T08:48:44.331Z,19.40
2017-08-11T08:51:12.035Z,19.77
2017-08-11T08:53:39.701Z,20.53
2017-08-11T08:56:07.314Z,17.90
2017-08-11T08:58:35.074Z,20.67
2017-08-11T09:01:02.705Z,17.70
2017-08-11T09:03:30.308Z,15.97
2017-08-11T09:05:58.140Z,15.93
2017-08-11T09:08:25.818Z,17.77
2017-08-11T09:10:53.552Z,17.90
2017-08-11T09:13:21.316Z,28.23
2017-08-11T09:15:48.936Z,19.30
2017-08-11T09:18:16.582Z,31.17
2017-08-11T09:20:44.194Z,22.40
2017-08-11T09:23:11.873Z,19.27
2017-08-11T09:25:51.415Z,21.33
2017-08-11T09:28:44.663Z,21.90
2017-08-11T09:31:24.013Z,18.60
2017-08-11T09:34:03.485Z,22.40
2017-08-11T09:36:36.499Z,18.83
2017-08-11T09:39:04.104Z,22.07
2017-08-11T09:41:31.712Z,19.57
2017-08-11T09:43:59.351Z,22.00
2017-08-11T09:46:27.004Z,22.27
2017-08-11T09:48:54.701Z,26.10
2017-08-11T09:51:22.294Z,39.77
2017-08-11T09:53:49.941Z,34.30
2017-08-11T09:56:17.588Z,23.87
2017-08-11T09:58:45.562Z,24.63
2017-08-11T10:01:13.163Z,21.87
2017-08-11T10:03:40.746Z,21.13
2017-08-11T10:06:08.432Z,20.83
2017-08-11T10:08:36.203Z,18.97
2017-08-11T10:11:03.911Z,19.30
2017-08-11T10:13:31.527Z,18.17
2017-08-11T10:15:59.254Z,17.83
2017-08-11T10:18:27.004Z,17.60
2017-08-11T10:20:54.929Z,18.50
2017-08-11T10:23:22.532Z,18.17
2017-08-11T10:25:50.291Z,17.30
2017-08-11T10:28:17.902Z,19.90
2017-08-11T10:30:45.498Z,18.93
2017-08-11T10:33:13.164Z,19.23
2017-08-11T10:35:40.803Z,19.70
2017-08-11T10:38:08.410Z,19.00
2017-08-11T10:40:36.188Z,25.13
2017-08-11T10:43:03.817Z,20.00
2017-08-11T10:45:31.496Z,20.07
2017-08-11T10:47:59.541Z,22.17
2017-08-11T10:50:33.923Z,20.20
2017-08-11T10:53:01.773Z,21.93
2017-08-11T10:55:29.459Z,22.73
2017-08-11T10:57:57.110Z,21.73
2017-08-11T11:00:24.754Z,23.40
2017-08-11T11:02:52.386Z,21.23
2017-08-11T11:05:20.017Z,22.20
2017-08-11T11:07:47.864Z,21.37
2017-08-11T11:10:15.792Z,23.80
2017-08-11T11:12:43.377Z,20.60
2017-08-11T11:15:11.396Z,20.80
2017-08-11T11:17:38.980Z,22.60
2017-08-11T11:20:06.584Z,22.27
2017-08-11T11:22:34.340Z,23.83
2017-08-11T11:25:01.940Z,24.07
2017-08-11T11:27:29.584Z,23.80
2017-08-11T11:29:58.658Z,21.93
2017-08-11T11:32:26.319Z,22.40
2017-08-11T11:34:53.975Z,20.87
2017-08-11T11:37:21.672Z,24.43
2017-08-11T11:39:49.393Z,26.03
2017-08-11T11:42:17.169Z,25.43
2017-08-11T11:44:45.200Z,23.37
2017-08-11T11:47:12.903Z,26.70
2017-08-11T11:49:40.652Z,25.43
2017-08-11T11:52:08.394Z,26.60
2017-08-11T11:54:35.990Z,30.30
2017-08-11T11:57:03.610Z,30.97
2017-08-11T11:59:31.213Z,31.80
2017-08-11T12:01:58.833Z,27.67
2017-08-11T12:04:26.422Z,27.87
2017-08-11T12:06:54.177Z,28.13
2017-08-11T12:09:21.784Z,26.40
2017-08-11T12:11:49.478Z,27.07
2017-08-11T12:14:17.101Z,30.27
2017-08-11T12:16:44.755Z,32.37
2017-08-11T12:19:12.503Z,24.53
2017-08-11T12:21:40.126Z,29.30
2017-08-11T12:24:07.714Z,26.83
2017-08-11T12:26:35.354Z,31.40
2017-08-11T12:29:03.017Z,26.43
2017-08-11T12:31:30.623Z,29.27
2017-08-11T12:33:58.303Z,25.17
2017-08-11T12:36:25.918Z,24.87
2017-08-11T12:38:53.815Z,24.73
2017-08-11T12:41:21.459Z,23.03
2017-08-11T12:43:49.145Z,30.97
2017-08-11T12:46:16.773Z,25.47
2017-08-11T12:48:44.505Z,24.00
2017-08-11T12:51:12.198Z,25.83
2017-08-11T12:53:39.789Z,25.03
2017-08-11T12:56:07.425Z,25.60
2017-08-11T12:58:35.165Z,22.73
2017-08-11T13:01:02.765Z,21.10
2017-08-11T13:03:30.379Z,24.83
2017-08-11T13:05:58.006Z,25.60
2017-08-11T13:08:25.720Z,22.17
2017-08-11T13:10:53.414Z,28.67
2017-08-11T13:13:21.072Z,23.57
2017-08-11T13:15:48.736Z,21.90
2017-08-11T13:18:16.364Z,21.67
2017-08-11T13:20:45.562Z,22.10
2017-08-11T13:23:13.172Z,22.53
2017-08-11T13:25:44.869Z,27.10
2017-08-11T13:28:13.469Z,26.83
2017-08-11T13:30:41.170Z,24.83
2017-08-11T13:33:09.079Z,25.00
2017-08-11T13:35:36.669Z,22.60
2017-08-11T13:38:04.450Z,24.90
2017-08-11T13:40:32.068Z,23.93
2017-08-11T13:42:59.797Z,22.10
2017-08-11T13:45:27.614Z,23.60
2017-08-11T13:47:55.227Z,21.03
2017-08-11T13:50:23.224Z,19.00
2017-08-11T13:52:50.824Z,19.00
2017-08-11T13:55:18.432Z,14.53
2017-08-11T13:57:46.249Z,16.80
2017-08-11T14:00:13.890Z,15.77
2017-08-11T14:02:41.659Z,17.23
2017-08-11T14:05:09.263Z,16.43
2017-08-11T14:07:37.361Z,18.23
2017-08-11T14:10:04.978Z,17.93
2017-08-11T14:12:32.629Z,16.30
2017-08-11T14:15:01.353Z,16.37
2017-08-11T14:17:29.098Z,16.63
2017-08-11T14:19:57.038Z,17.63
2017-08-11T14:22:24.644Z,16.83
2017-08-11T14:24:52.248Z,19.57
2017-08-11T14:27:19.902Z,20.40
2017-08-11T14:29:47.506Z,16.90
2017-08-11T14:32:15.144Z,18.20
2017-08-11T14:34:42.759Z,22.70
2017-08-11T14:37:10.702Z,18.97
2017-08-11T14:39:38.302Z,18.50
2017-08-11T14:42:05.894Z,18.07
2017-08-11T14:44:33.668Z,20.47
2017-08-11T14:47:01.265Z,16.70
2017-08-11T14:49:28.918Z,17.47
2017-08-11T14:51:56.596Z,18.40
2017-08-11T14:54:24.513Z,19.30
2017-08-11T14:56:52.241Z,19.13
2017-08-11T14:59:19.868Z,17.40
2017-08-11T15:01:47.511Z,18.00
2017-08-11T15:04:15.137Z,16.90
2017-08-11T15:06:43.111Z,20.93
2017-08-11T15:09:10.810Z,17.53
2017-08-11T15:11:38.421Z,17.00
2017-08-11T15:14:06.075Z,17.30
2017-08-11T15:16:33.695Z,16.03
2017-08-11T15:19:01.310Z,17.53
2017-08-11T15:21:29.012Z,15.73
2017-08-11T15:23:56.957Z,14.20
2017-08-11T15:26:24.599Z,20.60
2017-08-11T15:28:52.249Z,16.37
2017-08-11T15:31:19.943Z,16.87
2017-08-11T15:33:47.564Z,15.93
2017-08-11T15:36:15.201Z,16.73
2017-08-11T15:38:42.816Z,16.17
2017-08-11T15:41:10.790Z,17.43
2017-08-11T15:43:38.426Z,14.70
2017-08-11T15:46:06.034Z,12.60
2017-08-11T15:48:33.644Z,11.40
2017-08-11T15:51:01.247Z,10.30
2017-08-11T15:53:28.934Z,9.97
2017-08-11T15:55:56.535Z,8.80
2017-08-11T15:58:26.018Z,10.17
2017-08-11T16:00:53.800Z,8.33
2017-08-11T16:03:21.389Z,8.80
2017-08-11T16:05:49.187Z,7.70
2017-08-11T16:08:16.831Z,8.10
2017-08-11T16:10:44.929Z,7.10
2017-08-11T16:13:12.550Z,7.87
2017-08-11T16:15:41.197Z,8.03
2017-08-11T16:18:08.811Z,8.90
2017-08-11T16:20:41.514Z,9.30
2017-08-11T16:23:10.501Z,7.47
2017-08-11T16:25:41.543Z,8.07
2017-08-11T16:28:09.474Z,9.00
2017-08-11T16:30:37.082Z,8.93
2017-08-11T16:33:04.672Z,7.73
2017-08-11T16:35:32.310Z,10.33
2017-08-11T16:37:59.898Z,7.07
2017-08-11T16:40:27.907Z,7.77
2017-08-11T16:42:55.501Z,7.53
2017-08-11T16:45:23.597Z,7.30
2017-08-11T16:47:52.288Z,6.80
2017-08-11T16:50:22.270Z,8.03
2017-08-11T16:52:49.891Z,6.70
2017-08-11T16:55:18.100Z,7.10
2017-08-11T16:57:49.651Z,6.40
2017-08-11T17:00:17.407Z,6.00
2017-08-11T17:02:46.159Z,7.50
2017-08-11T17:05:16.241Z,7.10
2017-08-11T17:07:43.891Z,6.40
2017-08-11T17:10:11.513Z,6.40
2017-08-11T17:12:39.123Z,7.80
2017-08-11T17:15:07.314Z,5.80
2017-08-11T17:17:35.816Z,6.13
2017-08-11T17:20:03.433Z,5.60
2017-08-11T17:22:31.082Z,5.10
2017-08-11T17:24:59.970Z,8.00
2017-08-11T17:27:29.031Z,7.00
2017-08-11T17:29:57.321Z,7.10
2017-08-11T17:32:25.292Z,8.23
2017-08-11T17:34:53.812Z,4.87
2017-08-11T17:37:21.403Z,4.50
2017-08-11T17:39:49.025Z,4.67
2017-08-11T17:42:16.635Z,4.50
2017-08-11T17:44:44.289Z,4.33
2017-08-11T17:47:11.920Z,5.10
2017-08-11T17:49:39.525Z,3.97
2017-08-11T17:52:07.183Z,3.43
2017-08-11T17:54:34.797Z,3.70
2017-08-11T17:57:02.740Z,3.40
2017-08-11T17:59:30.469Z,5.30
2017-08-11T18:01:58.115Z,3.27
2017-08-11T18:04:25.745Z,3.20
2017-08-11T18:06:53.350Z,3.50
2017-08-11T18:09:21.154Z,3.47
2017-08-11T18:11:48.786Z,2.77
2017-08-11T18:14:16.837Z,4.60
2017-08-11T18:16:44.508Z,3.20
2017-08-11T18:19:12.116Z,3.10
2017-08-11T18:21:39.876Z,3.33
2017-08-11T18:24:07.486Z,3.90
2017-08-11T18:26:36.339Z,3.40
2017-08-11T18:29:03.951Z,2.80
2017-08-11T18:31:31.670Z,2.97
2017-08-11T18:34:00.902Z,7.13
2017-08-11T18:36:28.530Z,2.87
2017-08-11T18:38:56.160Z,2.90
2017-08-11T18:41:23.901Z,3.00
2017-08-11T18:43:51.516Z,3.40
2017-08-11T18:46:19.149Z,2.77
2017-08-11T18:48:47.054Z,3.80
2017-08-11T18:51:14.645Z,3.37
2017-08-11T18:53:42.472Z,3.93
2017-08-11T18:56:10.137Z,2.60
2017-08-11T18:58:39.468Z,2.63
2017-08-11T19:01:07.078Z,2.10
2017-08-11T19:03:34.766Z,2.40
2017-08-11T19:06:02.411Z,3.77
2017-08-11T19:08:30.033Z,3.93
2017-08-11T19:10:57.686Z,8.33
2017-08-11T19:13:25.313Z,2.00
2017-08-11T19:15:53.183Z,1.80
2017-08-11T19:18:21.363Z,1.70
2017-08-11T19:20:49.007Z,3.27
2017-08-11T19:23:16.632Z,2.07
2017-08-11T19:25:45.789Z,2.00
2017-08-11T19:28:13.448Z,2.33
2017-08-11T19:30:42.337Z,2.03
2017-08-11T19:33:10.163Z,2.17
2017-08-11T19:35:37.777Z,1.87
2017-08-11T19:38:07.170Z,3.43
2017-08-11T19:40:34.793Z,2.00
2017-08-11T19:43:02.997Z,2.33
2017-08-11T19:45:31.956Z,1.80
2017-08-11T19:48:01.171Z,2.40
2017-08-11T19:50:30.165Z,2.60
2017-08-11T19:52:57.807Z,2.10
2017-08-11T19:55:25.407Z,2.30
2017-08-11T19:57:53.028Z,2.60
2017-08-11T20:00:20.640Z,2.53
2017-08-11T20:02:50.153Z,2.40
2017-08-11T20:05:17.807Z,3.67
2017-08-11T20:07:46.160Z,2.27
2017-08-11T20:10:14.740Z,2.47
2017-08-11T20:12:42.355Z,2.70
2017-08-11T20:15:09.978Z,2.60
2017-08-11T20:17:37.574Z,2.50
2017-08-11T20:20:05.196Z,2.20
2017-08-11T20:22:32.848Z,3.60
2017-08-11T20:25:00.422Z,5.60
2017-08-11T20:27:28.179Z,2.50
2017-08-11T20:29:57.394Z,2.73
2017-08-11T20:32:25.028Z,4.30
2017-08-11T20:34:52.620Z,3.40
2017-08-11T20:37:23.073Z,3.80
2017-08-11T20:39:53.329Z,4.20
2017-08-11T20:42:20.971Z,4.40
2017-08-11T20:44:48.568Z,3.73
2017-08-11T20:47:16.217Z,6.20
2017-08-11T20:49:43.900Z,3.40
2017-08-11T20:52:11.941Z,3.80
2017-08-11T20:54:39.634Z,4.10
2017-08-11T20:57:07.237Z,3.63
2017-08-11T20:59:34.851Z,3.73
2017-08-11T21:02:02.454Z,4.30
2017-08-11T21:04:30.079Z,4.20
2017-08-11T21:06:58.171Z,4.47
2017-08-11T21:09:28.887Z,4.90
2017-08-11T21:11:56.536Z,4.37
2017-08-11T21:14:24.180Z,4.00
2017-08-11T21:16:52.330Z,5.10
2017-08-11T21:19:19.920Z,5.27
2017-08-11T21:21:47.633Z,4.57
2017-08-11T21:24:15.269Z,4.50
2017-08-11T21:26:42.875Z,5.00
2017-08-11T21:29:10.595Z,5.10
2017-08-11T21:31:38.374Z,5.40
2017-08-11T21:34:06.392Z,6.60
2017-08-11T21:36:33.979Z,6.90
2017-08-11T21:39:01.652Z,6.83
2017-08-11T21:41:29.271Z,6.07
2017-08-11T21:43:56.976Z,6.57
2017-08-11T21:46:24.594Z,6.40
2017-08-11T21:48:52.187Z,6.40
2017-08-11T21:51:20.162Z,6.40
2017-08-11T21:53:48.542Z,6.10
2017-08-11T21:56:16.148Z,7.03
2017-08-11T21:58:43.801Z,8.47
2017-08-11T22:01:11.430Z,11.17
2017-08-11T22:03:39.043Z,8.43
2017-08-11T22:06:06.654Z,7.27
2017-08-11T22:08:34.588Z,7.53
2017-08-11T22:11:02.203Z,8.40
2017-08-11T22:13:29.950Z,9.03
2017-08-11T22:15:57.552Z,8.73
2017-08-11T22:18:25.257Z,8.93
2017-08-11T22:20:52.941Z,13.00
2017-08-11T22:23:20.696Z,9.67
2017-08-11T22:25:48.338Z,10.90
2017-08-11T22:28:15.923Z,11.13
2017-08-11T22:30:43.556Z,11.10
2017-08-11T22:33:11.154Z,10.03
2017-08-11T22:35:38.753Z,12.77
2017-08-11T22:38:06.400Z,9.40
2017-08-11T22:40:34.132Z,10.83
2017-08-11T22:43:01.784Z,13.03
2017-08-11T22:45:29.376Z,10.33
2017-08-11T22:47:56.988Z,14.73
2017-08-11T22:50:24.584Z,13.17
2017-08-11T22:52:52.239Z,10.97
2017-08-11T22:55:19.829Z,10.87
2017-08-11T22:57:47.438Z,16.17
2017-08-11T23:00:15.083Z,12.60
2017-08-11T23:02:43.057Z,12.53
2017-08-11T23:05:10.659Z,12.20
2017-08-11T23:07:38.267Z,11.63
2017-08-11T23:10:05.909Z,11.77
2017-08-11T23:12:33.513Z,12.10
2017-08-11T23:15:01.157Z,12.30
2017-08-11T23:17:28.773Z,12.63
2017-08-11T23:19:56.602Z,12.40
2017-08-11T23:22:24.195Z,13.70
2017-08-11T23:24:51.789Z,11.97
2017-08-11T23:27:19.368Z,11.77
2017-08-11T23:29:47.267Z,13.87
2017-08-11T23:32:14.874Z,10.60
2017-08-11T23:34:42.450Z,12.67
2017-08-11T23:37:10.640Z,10.03
2017-08-11T23:39:38.347Z,11.93
2017-08-11T23:42:05.967Z,12.87
2017-08-11T23:44:33.586Z,9.10
2017-08-11T23:47:01.322Z,10.80
2017-08-11T23:49:28.916Z,10.80
2017-08-11T23:51:56.535Z,11.33
2017-08-11T23:54:24.208Z,11.03
2017-08-11T23:56:51.825Z,9.80
2017-08-11T23:59:19.524Z,11.77
